地図

経路データ

SID SEASON NUMBER BASIN SUBBASIN NAME ISO_TIME NATURE LAT LON WMO_WIND WMO_PRES WMO_AGENCY TRACK_TYPE DIST2LAND LANDFALL IFLAG USA_AGENCY USA_ATCF_ID USA_LAT USA_LON USA_RECORD USA_STATUS USA_WIND USA_PRES USA_SSHS USA_R34_NE USA_R34_SE USA_R34_SW USA_R34_NW USA_R50_NE USA_R50_SE USA_R50_SW USA_R50_NW USA_R64_NE USA_R64_SE USA_R64_SW USA_R64_NW USA_POCI USA_ROCI USA_RMW USA_EYE TOKYO_LAT TOKYO_LON TOKYO_GRADE TOKYO_WIND TOKYO_PRES TOKYO_R50_DIR TOKYO_R50_LONG TOKYO_R50_SHORT TOKYO_R30_DIR TOKYO_R30_LONG TOKYO_R30_SHORT TOKYO_LAND CMA_LAT CMA_LON CMA_CAT CMA_WIND CMA_PRES HKO_LAT HKO_LON HKO_CAT HKO_WIND HKO_PRES NEWDELHI_LAT NEWDELHI_LON NEWDELHI_GRADE NEWDELHI_WIND NEWDELHI_PRES NEWDELHI_CI NEWDELHI_DP NEWDELHI_POCI REUNION_LAT REUNION_LON REUNION_TYPE REUNION_WIND REUNION_PRES REUNION_TNUM REUNION_CI REUNION_RMW REUNION_R34_NE REUNION_R34_SE REUNION_R34_SW REUNION_R34_NW REUNION_R50_NE REUNION_R50_SE REUNION_R50_SW REUNION_R50_NW REUNION_R64_NE REUNION_R64_SE REUNION_R64_SW REUNION_R64_NW BOM_LAT BOM_LON BOM_TYPE BOM_WIND BOM_PRES BOM_TNUM BOM_CI BOM_RMW BOM_R34_NE BOM_R34_SE BOM_R34_SW BOM_R34_NW BOM_R50_NE BOM_R50_SE BOM_R50_SW BOM_R50_NW BOM_R64_NE BOM_R64_SE BOM_R64_SW BOM_R64_NW BOM_ROCI BOM_POCI BOM_EYE BOM_POS_METHOD BOM_PRES_METHOD NADI_LAT NADI_LON NADI_CAT NADI_WIND NADI_PRES WELLINGTON_LAT WELLINGTON_LON WELLINGTON_WIND WELLINGTON_PRES DS824_LAT DS824_LON DS824_STAGE DS824_WIND DS824_PRES TD9636_LAT TD9636_LON TD9636_STAGE TD9636_WIND TD9636_PRES TD9635_LAT TD9635_LON TD9635_WIND TD9635_PRES TD9635_ROCI NEUMANN_LAT NEUMANN_LON NEUMANN_CLASS NEUMANN_WIND NEUMANN_PRES MLC_LAT MLC_LON MLC_CLASS MLC_WIND MLC_PRES USA_GUST BOM_GUST BOM_GUST_PER REUNION_GUST REUNION_GUST_PER USA_SEAHGT USA_SEARAD_NE USA_SEARAD_SE USA_SEARAD_SW USA_SEARAD_NW STORM_SPEED STORM_DIR
1990295N11261 1990 108 EP MM VANCE 1990-10-21 18:00:00 TS 11.3000 -99.1000 25 1011 hurdat_epa main 544 544 O_____________ hurdat_epa EP241990 11.3000 -99.1000 TD 25 1011 -1 3 220
1990295N11261 1990 108 EP MM VANCE 1990-10-21 21:00:00 TS 11.2000 -99.1875 main 558 558 P_____________ EP241990 11.2000 -99.1875 TD 25 1010 -1 3 225
1990295N11261 1990 108 EP MM VANCE 1990-10-22 00:00:00 TS 11.1000 -99.3000 25 1010 hurdat_epa main 572 572 O_____________ hurdat_epa EP241990 11.1000 -99.3000 TD 25 1010 -1 3 234
1990295N11261 1990 108 EP MM VANCE 1990-10-22 03:00:00 TS 11.0125 -99.4500 main 589 589 P_____________ EP241990 11.0125 -99.4500 TD 25 1010 -1 3 251
1990295N11261 1990 108 EP MM VANCE 1990-10-22 06:00:00 TS 11.0000 -99.6000 25 1010 hurdat_epa main 592 585 O_____________ hurdat_epa EP241990 11.0000 -99.6000 TD 25 1010 -1 3 290
1990295N11261 1990 108 EP MM VANCE 1990-10-22 09:00:00 TS 11.1050 -99.7075 main 585 568 P_____________ EP241990 11.1050 -99.7075 TD 27 1009 -1 4 327
1990295N11261 1990 108 EP MM VANCE 1990-10-22 12:00:00 TS 11.3000 -99.8000 30 1009 hurdat_epa main 568 552 O_____________ hurdat_epa EP241990 11.3000 -99.8000 TD 30 1009 -1 5 338
1990295N11261 1990 108 EP MM VANCE 1990-10-22 15:00:00 TS 11.5425 -99.8925 main 552 525 P_____________ EP241990 11.5425 -99.8925 TD 30 1008 -1 5 338
1990295N11261 1990 108 EP MM VANCE 1990-10-22 18:00:00 TS 11.8000 -100.000 30 1008 hurdat_epa main 525 507 O_____________ hurdat_epa EP241990 11.8000 -100.000 TD 30 1008 -1 5 333
1990295N11261 1990 108 EP MM VANCE 1990-10-22 21:00:00 TS 12.0150 -100.135 main 507 494 P_____________ EP241990 12.0150 -100.135 TD 32 1006 -1 5 324
1990295N11261 1990 108 EP MM VANCE 1990-10-23 00:00:00 TS 12.2000 -100.300 35 1005 hurdat_epa main 494 488 O_____________ hurdat_epa EP241990 12.2000 -100.300 TS 35 1005 0 5 316
1990295N11261 1990 108 EP MM VANCE 1990-10-23 03:00:00 TS 12.3575 -100.478 main 482 476 P_____________ EP241990 12.3575 -100.478 TS 37 1003 0 5 308
1990295N11261 1990 108 EP MM VANCE 1990-10-23 06:00:00 TS 12.5000 -100.700 40 1002 hurdat_epa main 481 474 O_____________ hurdat_epa EP241990 12.5000 -100.700 TS 40 1002 0 6 300
1990295N11261 1990 108 EP MM VANCE 1990-10-23 09:00:00 TS 12.6425 -100.985 main 479 465 P_____________ EP241990 12.6425 -100.985 TS 42 1001 0 7 297
1990295N11261 1990 108 EP MM VANCE 1990-10-23 12:00:00 TS 12.8000 -101.300 45 1000 hurdat_epa main 469 461 O_____________ hurdat_epa EP241990 12.8000 -101.300 TS 45 1000 0 7 300
1990295N11261 1990 108 EP MM VANCE 1990-10-23 15:00:00 TS 12.9925 -101.608 main 461 452 P_____________ EP241990 12.9925 -101.608 TS 47 998 0 7 304
1990295N11261 1990 108 EP MM VANCE 1990-10-23 18:00:00 TS 13.2000 -101.900 50 997 hurdat_epa main 457 447 O_____________ hurdat_epa EP241990 13.2000 -101.900 TS 50 997 0 7 307
1990295N11261 1990 108 EP MM VANCE 1990-10-23 21:00:00 TS 13.3925 -102.158 main 451 433 P_____________ EP241990 13.3925 -102.158 TS 52 995 0 6 309
1990295N11261 1990 108 EP MM VANCE 1990-10-24 00:00:00 TS 13.6000 -102.400 55 994 hurdat_epa main 436 423 O_____________ hurdat_epa EP241990 13.6000 -102.400 TS 55 994 0 7 313
1990295N11261 1990 108 EP MM VANCE 1990-10-24 03:00:00 TS 13.8425 -102.658 main 427 406 P_____________ EP241990 13.8425 -102.658 TS 55 994 0 7 316
1990295N11261 1990 108 EP MM VANCE 1990-10-24 06:00:00 TS 14.1000 -102.900 55 994 hurdat_epa main 406 392 O_____________ hurdat_epa EP241990 14.1000 -102.900 TS 55 994 0 7 320
1990295N11261 1990 108 EP MM VANCE 1990-10-24 09:00:00 TS 14.3424 -103.093 main 398 382 P_____________ EP241990 14.3424 -103.093 TS 55 994 0 6 322
1990295N11261 1990 108 EP MM VANCE 1990-10-24 12:00:00 TS 14.6000 -103.300 55 994 hurdat_epa main 382 359 O_____________ hurdat_epa EP241990 14.6000 -103.300 TS 55 994 0 7 320
1990295N11261 1990 108 EP MM VANCE 1990-10-24 15:00:00 TS 14.8924 -103.570 main 362 341 P_____________ EP241990 14.8924 -103.570 TS 55 994 0 8 316
1990295N11261 1990 108 EP MM VANCE 1990-10-24 18:00:00 TS 15.2000 -103.900 55 994 hurdat_epa main 341 320 O_____________ hurdat_epa EP241990 15.2000 -103.900 TS 55 994 0 9 312
1990295N11261 1990 108 EP MM VANCE 1990-10-24 21:00:00 TS 15.5075 -104.278 main 324 303 P_____________ EP241990 15.5075 -104.278 TS 55 993 0 10 308
1990295N11261 1990 108 EP MM VANCE 1990-10-25 00:00:00 TS 15.8000 -104.700 55 993 hurdat_epa main 307 302 O_____________ hurdat_epa EP241990 15.8000 -104.700 TS 55 993 0 10 303
1990295N11261 1990 108 EP MM VANCE 1990-10-25 03:00:00 TS 16.0574 -105.143 main 299 299 P_____________ EP241990 16.0574 -105.143 TS 57 991 0 10 300
1990295N11261 1990 108 EP MM VANCE 1990-10-25 06:00:00 TS 16.3000 -105.600 60 990 hurdat_epa main 315 315 O_____________ hurdat_epa EP241990 16.3000 -105.600 TS 60 990 0 10 299
1990295N11261 1990 108 EP MM VANCE 1990-10-25 09:00:00 TS 16.5424 -106.058 main 331 317 P_____________ EP241990 16.5424 -106.058 TS 62 988 0 10 300
1990295N11261 1990 108 EP MM VANCE 1990-10-25 12:00:00 TS 16.8000 -106.500 65 987 hurdat_epa main 323 317 O_____________ hurdat_epa EP241990 16.8000 -106.500 HU 65 987 1 10 304
1990295N11261 1990 108 EP MM VANCE 1990-10-25 15:00:00 TS 17.1000 -106.923 main 323 322 P_____________ EP241990 17.1000 -106.923 HU 70 983 1 10 308
1990295N11261 1990 108 EP MM VANCE 1990-10-25 18:00:00 TS 17.4000 -107.300 75 979 hurdat_epa main 330 329 O_____________ hurdat_epa EP241990 17.4000 -107.300 HU 75 979 1 9 310
1990295N11261 1990 108 EP MM VANCE 1990-10-25 21:00:00 TS 17.6649 -107.630 main 329 329 P_____________ EP241990 17.6649 -107.630 HU 80 977 1 8 311
1990295N11261 1990 108 EP MM VANCE 1990-10-26 00:00:00 TS 17.9000 -107.900 85 975 hurdat_epa main 339 339 O_____________ hurdat_epa EP241990 17.9000 -107.900 HU 85 975 2 7 314
1990295N11261 1990 108 EP MM VANCE 1990-10-26 03:00:00 TS 18.1149 -108.123 main 344 344 P_____________ EP241990 18.1149 -108.123 HU 85 975 2 6 317
1990295N11261 1990 108 EP MM VANCE 1990-10-26 06:00:00 TS 18.3000 -108.300 85 975 hurdat_epa main 350 350 O_____________ hurdat_epa EP241990 18.3000 -108.300 HU 85 975 2 5 316
1990295N11261 1990 108 EP MM VANCE 1990-10-26 09:00:00 TS 18.4650 -108.473 main 356 356 P_____________ EP241990 18.4650 -108.473 HU 85 975 2 4 317
1990295N11261 1990 108 EP MM VANCE 1990-10-26 12:00:00 TS 18.6000 -108.600 85 975 hurdat_epa main 361 356 O_____________ hurdat_epa EP241990 18.6000 -108.600 HU 85 975 2 3 322
1990295N11261 1990 108 EP MM VANCE 1990-10-26 15:00:00 TS 18.7150 -108.680 main 365 361 P_____________ EP241990 18.7150 -108.680 HU 85 975 2 2 333
1990295N11261 1990 108 EP MM VANCE 1990-10-26 18:00:00 TS 18.8000 -108.700 85 976 hurdat_epa main 361 356 O_____________ hurdat_epa EP241990 18.8000 -108.700 HU 85 976 2 2 0
1990295N11261 1990 108 EP MM VANCE 1990-10-26 21:00:00 TS 18.8650 -108.665 main 356 346 P_____________ EP241990 18.8650 -108.665 HU 82 977 1 1 43
1990295N11261 1990 108 EP MM VANCE 1990-10-27 00:00:00 TS 18.9000 -108.600 80 978 hurdat_epa main 346 346 O_____________ hurdat_epa EP241990 18.9000 -108.600 HU 80 978 1 1 61
1990295N11261 1990 108 EP MM VANCE 1990-10-27 03:00:00 TS 18.9150 -108.573 main 346 337 P_____________ EP241990 18.9150 -108.573 HU 77 980 1 1 90
1990295N11261 1990 108 EP MM VANCE 1990-10-27 06:00:00 TS 18.9000 -108.500 75 982 hurdat_epa main 337 318 O_____________ hurdat_epa EP241990 18.9000 -108.500 HU 75 982 1 2 100
1990295N11261 1990 108 EP MM VANCE 1990-10-27 09:00:00 TS 18.8726 -108.315 main 318 303 P_____________ EP241990 18.8726 -108.315 HU 70 984 1 4 105
1990295N11261 1990 108 EP MM VANCE 1990-10-27 12:00:00 TS 18.8000 -108.100 65 987 hurdat_epa main 303 294 O_____________ hurdat_epa EP241990 18.8000 -108.100 HU 65 987 1 4 120
1990295N11261 1990 108 EP MM VANCE 1990-10-27 15:00:00 TS 18.6650 -107.943 main 290 287 P_____________ EP241990 18.6650 -107.943 HU 62 990 0 4 137
1990295N11261 1990 108 EP MM VANCE 1990-10-27 18:00:00 TS 18.5000 -107.800 60 993 hurdat_epa main 294 282 O_____________ hurdat_epa EP241990 18.5000 -107.800 TS 60 993 0 4 136
1990295N11261 1990 108 EP MM VANCE 1990-10-27 21:00:00 TS 18.3500 -107.620 main 282 279 P_____________ EP241990 18.3500 -107.620 TS 60 994 0 4 137
1990295N11261 1990 108 EP MM VANCE 1990-10-28 00:00:00 TS 18.2000 -107.500 60 996 hurdat_epa main 285 285 O_____________ hurdat_epa EP241990 18.2000 -107.500 TS 60 996 0 3 158
1990295N11261 1990 108 EP MM VANCE 1990-10-28 03:00:00 TS 18.0650 -107.505 main 292 292 P_____________ EP241990 18.0650 -107.505 TS 55 997 0 3 197
1990295N11261 1990 108 EP MM VANCE 1990-10-28 06:00:00 TS 17.9000 -107.600 50 998 hurdat_epa main 314 314 O_____________ hurdat_epa EP241990 17.9000 -107.600 TS 50 998 0 4 206
1990295N11261 1990 108 EP MM VANCE 1990-10-28 09:00:00 TS 17.6649 -107.712 main 337 337 P_____________ EP241990 17.6649 -107.712 TS 47 998 0 6 210
1990295N11261 1990 108 EP MM VANCE 1990-10-28 12:00:00 TS 17.4000 -107.900 45 999 hurdat_epa main 375 375 O_____________ hurdat_epa EP241990 17.4000 -107.900 TS 45 999 0 7 221
1990295N11261 1990 108 EP MM VANCE 1990-10-28 15:00:00 TS 17.1351 -108.193 main 422 422 P_____________ EP241990 17.1351 -108.193 TS 45 999 0 8 229
1990295N11261 1990 108 EP MM VANCE 1990-10-28 18:00:00 TS 16.9000 -108.500 45 1000 hurdat_epa main 460 460 O_____________ hurdat_epa EP241990 16.9000 -108.500 TS 45 1000 0 7 230
1990295N11261 1990 108 EP MM VANCE 1990-10-28 21:00:00 TS 16.7125 -108.722 main 491 491 P_____________ EP241990 16.7125 -108.722 TS 45 1000 0 5 232
1990295N11261 1990 108 EP MM VANCE 1990-10-29 00:00:00 TS 16.6000 -108.900 45 1000 hurdat_epa main 514 514 O_____________ hurdat_epa EP241990 16.6000 -108.900 TS 45 1000 0 4 245
1990295N11261 1990 108 EP MM VANCE 1990-10-29 03:00:00 TS 16.5625 -109.057 main 530 530 P_____________ EP241990 16.5625 -109.057 TS 45 1000 0 3 270
1990295N11261 1990 108 EP MM VANCE 1990-10-29 06:00:00 TS 16.6000 -109.200 45 1000 hurdat_epa main 538 538 O_____________ hurdat_epa EP241990 16.6000 -109.200 TS 45 1000 0 3 293
1990295N11261 1990 108 EP MM VANCE 1990-10-29 09:00:00 TS 16.6699 -109.328 main 539 539 P_____________ EP241990 16.6699 -109.328 TS 45 1000 0 4 305
1990295N11261 1990 108 EP MM VANCE 1990-10-29 12:00:00 TS 16.8000 -109.500 45 1001 hurdat_epa main 549 549 O_____________ hurdat_epa EP241990 16.8000 -109.500 TS 45 1001 0 5 307
1990295N11261 1990 108 EP MM VANCE 1990-10-29 15:00:00 TS 16.9925 -109.770 main 562 562 P_____________ EP241990 16.9925 -109.770 TS 42 1002 0 7 305
1990295N11261 1990 108 EP MM VANCE 1990-10-29 18:00:00 TS 17.2000 -110.100 40 1003 hurdat_epa main 577 577 O_____________ hurdat_epa EP241990 17.2000 -110.100 TS 40 1003 0 7 301
1990295N11261 1990 108 EP MM VANCE 1990-10-29 21:00:00 TS 17.3724 -110.435 main 592 592 P_____________ EP241990 17.3724 -110.435 TS 37 1005 0 7 294
1990295N11261 1990 108 EP MM VANCE 1990-10-30 00:00:00 TS 17.5000 -110.800 35 1007 hurdat_epa main 609 603 O_____________ hurdat_epa EP241990 17.5000 -110.800 TS 35 1007 0 7 285
1990295N11261 1990 108 EP MM VANCE 1990-10-30 03:00:00 TS 17.5650 -111.193 main 605 605 P_____________ EP241990 17.5650 -111.193 TS 32 1008 -1 8 277
1990295N11261 1990 108 EP MM VANCE 1990-10-30 06:00:00 TS 17.6000 -111.600 30 1009 hurdat_epa main 615 615 O_____________ hurdat_epa EP241990 17.6000 -111.600 TD 30 1009 -1 8 276
1990295N11261 1990 108 EP MM VANCE 1990-10-30 09:00:00 TS 17.6424 -112.000 main 628 621 P_____________ EP241990 17.6424 -112.000 TD 27 1009 -1 8 277
1990295N11261 1990 108 EP MM VANCE 1990-10-30 12:00:00 TS 17.7000 -112.400 25 1010 hurdat_epa main 633 633 O_____________ hurdat_epa EP241990 17.7000 -112.400 TD 25 1010 -1 8 280
1990295N11261 1990 108 EP MM VANCE 1990-10-30 15:00:00 TS 17.7850 -112.808 main 640 640 P_____________ EP241990 17.7850 -112.808 TD 25 1010 -1 8 285
1990295N11261 1990 108 EP MM VANCE 1990-10-30 18:00:00 TS 17.9000 -113.200 25 1010 hurdat_epa main 650 650 O_____________ hurdat_epa EP241990 17.9000 -113.200 TD 25 1010 -1 8 289
1990295N11261 1990 108 EP MM VANCE 1990-10-30 21:00:00 TS 18.0349 -113.565 main 663 654 P_____________ EP241990 18.0349 -113.565 TD 25 1010 -1 7 294
1990295N11261 1990 108 EP MM VANCE 1990-10-31 00:00:00 TS 18.2000 -113.900 25 1010 hurdat_epa main 664 661 O_____________ hurdat_epa EP241990 18.2000 -113.900 TD 25 1010 -1 7 300
1990295N11261 1990 108 EP MM VANCE 1990-10-31 03:00:00 TS 18.3925 -114.215 main 666 663 P_____________ EP241990 18.3925 -114.215 TD 25 1010 -1 7 305
1990295N11261 1990 108 EP MM VANCE 1990-10-31 06:00:00 TS 18.6000 -114.500 25 1010 hurdat_epa main 670 669 O_____________ hurdat_epa EP241990 18.6000 -114.500 TD 25 1010 -1 7 307
1990295N11261 1990 108 EP MM VANCE 1990-10-31 09:00:00 TS 18.8000 -114.787 main 677 677 P_____________ EP241990 18.8000 -114.787 TD 22 1010 -1 6 310
1990295N11261 1990 108 EP MM VANCE 1990-10-31 12:00:00 TS 19.0000 -115.000 20 1010 hurdat_epa main 677 670 O_____________ hurdat_epa EP241990 19.0000 -115.000 TD 20 1010 -1 5 325
1990295N11261 1990 108 EP MM VANCE 1990-10-31 15:00:00 TS 19.2000 -115.088 main 671 657 P_____________ EP241990 19.2000 -115.088 TD 20 1010 -1 4 347
1990295N11261 1990 108 EP MM VANCE 1990-10-31 18:00:00 TS 19.4000 -115.100 20 1010 hurdat_epa main 657 O_____________ hurdat_epa EP241990 19.4000 -115.100 TD 20 1010 -1 4 353

IBTrACS Databaseについて

本データベースは、米国NOAAが公開する1842年以降の世界の熱帯低気圧のベストトラックデータアーカイブInternational Best Track Archive for Climate Stewardship (IBTrACS)を、ウェブで閲覧しやすい形式に変換したものです。

最終更新日:2021-12-03